createdAt,value
2023-12-27T00:02:57.021Z,1.8
2023-12-27T00:08:04.292Z,2.1
2023-12-27T00:13:11.657Z,1.8
2023-12-27T00:18:19.430Z,1.6
2023-12-27T00:23:26.376Z,1.7
2023-12-27T00:28:33.718Z,1.4
2023-12-27T00:33:41.127Z,1.4
2023-12-27T00:38:48.452Z,1.4
2023-12-27T00:43:55.764Z,1.6
2023-12-27T00:49:03.170Z,1.8
2023-12-27T00:54:10.490Z,1.7
2023-12-27T00:59:17.834Z,1.5
2023-12-27T01:04:25.380Z,1.7
2023-12-27T01:09:32.651Z,1.8
2023-12-27T01:14:39.932Z,1.7
2023-12-27T01:19:47.346Z,1.7
2023-12-27T01:24:54.651Z,1.7
2023-12-27T01:30:02.079Z,2.2
2023-12-27T01:35:09.480Z,2.2
2023-12-27T01:40:16.731Z,1.8
2023-12-27T01:45:24.073Z,1.7
2023-12-27T01:50:31.401Z,1.7
2023-12-27T01:55:38.807Z,1.9
2023-12-27T02:00:46.218Z,1.8
2023-12-27T02:05:53.509Z,1.7
2023-12-27T02:11:00.817Z,1.8
2023-12-27T02:16:08.220Z,1.8
2023-12-27T02:21:15.555Z,1.9
2023-12-27T02:26:22.895Z,1.8
2023-12-27T02:31:30.343Z,2
2023-12-27T02:36:37.677Z,2.1
2023-12-27T02:41:44.972Z,2.1
2023-12-27T02:46:52.326Z,2.1
2023-12-27T02:51:59.733Z,2.2
2023-12-27T02:57:07.106Z,2
2023-12-27T03:02:14.429Z,2.2
2023-12-27T03:07:21.799Z,2.2
2023-12-27T03:12:29.155Z,2.1
2023-12-27T03:17:36.517Z,2
2023-12-27T03:22:43.846Z,2.3
2023-12-27T03:27:51.175Z,2.2
2023-12-27T03:32:58.632Z,2.4
2023-12-27T03:38:05.902Z,2.1
2023-12-27T03:43:13.296Z,2.3
2023-12-27T03:48:20.702Z,2.1
2023-12-27T03:53:27.936Z,2.3
2023-12-27T03:58:35.306Z,2.2
2023-12-27T04:03:42.760Z,2.1
2023-12-27T04:08:50.033Z,2.1
2023-12-27T04:13:57.366Z,2.3
2023-12-27T04:19:04.824Z,2.3
2023-12-27T04:24:12.151Z,2.2
2023-12-27T04:29:19.461Z,2.5
2023-12-27T04:34:26.916Z,2.3
2023-12-27T04:39:34.170Z,2.4
2023-12-27T04:44:41.521Z,2.4
2023-12-27T04:49:48.991Z,2.4
2023-12-27T04:54:56.249Z,2.3
2023-12-27T05:00:03.663Z,2.4
2023-12-27T05:05:10.961Z,2.2
2023-12-27T05:10:18.340Z,2.3
2023-12-27T05:15:25.688Z,2.2
2023-12-27T05:20:33.012Z,2.2
2023-12-27T05:25:40.376Z,2.3
2023-12-27T05:30:47.752Z,2.1
2023-12-27T05:35:57.320Z,2
2023-12-27T05:41:02.456Z,2
2023-12-27T05:46:09.798Z,2
2023-12-27T05:51:17.235Z,2.2
2023-12-27T05:56:24.533Z,1.9
2023-12-27T06:01:31.951Z,2.2
2023-12-27T06:06:39.273Z,2.3
2023-12-27T06:11:46.577Z,2.3
2023-12-27T06:16:53.934Z,2.3
2023-12-27T06:22:01.280Z,2.3
2023-12-27T06:27:08.681Z,2.5
2023-12-27T06:32:16.024Z,2.5
2023-12-27T06:39:35.144Z,2.3
2023-12-27T06:44:42.467Z,2.3
2023-12-27T06:49:49.792Z,2.4
2023-12-27T06:54:57.162Z,2.6
2023-12-27T07:00:04.592Z,2.8
2023-12-27T07:05:12.013Z,2.8
2023-12-27T07:10:19.202Z,2.6
2023-12-27T07:15:26.583Z,2.4
2023-12-27T07:20:33.952Z,2.1
2023-12-27T07:25:41.299Z,2.2
2023-12-27T07:30:48.747Z,2.4
2023-12-27T07:35:55.999Z,2.4
2023-12-27T07:41:03.354Z,2.6
2023-12-27T07:46:10.703Z,2.7
2023-12-27T07:51:18.076Z,2.8
2023-12-27T07:56:25.433Z,2.8
2023-12-27T08:01:32.864Z,3
2023-12-27T08:06:40.171Z,3.3
2023-12-27T08:11:47.479Z,4.1
2023-12-27T08:16:54.871Z,4.7
2023-12-27T08:22:02.205Z,5.2
2023-12-27T08:27:09.609Z,5.7
2023-12-27T08:32:16.974Z,5.7
2023-12-27T08:37:24.306Z,5.6
2023-12-27T08:42:31.649Z,5.7
2023-12-27T08:47:39.008Z,5.9
2023-12-27T08:52:46.403Z,6.1
2023-12-27T08:57:53.763Z,6.3
2023-12-27T09:03:01.198Z,6.6
2023-12-27T09:08:08.441Z,6.6
2023-12-27T09:13:15.804Z,6.7
2023-12-27T09:18:23.149Z,6.6
2023-12-27T09:23:30.511Z,7.1
2023-12-27T09:28:37.821Z,7.4
2023-12-27T09:33:45.257Z,7.7
2023-12-27T09:38:52.589Z,8
2023-12-27T09:43:59.920Z,8.1
2023-12-27T09:49:07.304Z,8.1
2023-12-27T09:54:14.657Z,8.2
2023-12-27T09:59:21.971Z,8.2
2023-12-27T10:04:29.342Z,8.5
2023-12-27T10:09:36.750Z,8.6
2023-12-27T10:14:44.067Z,8.6
2023-12-27T10:19:51.437Z,8.8
2023-12-27T10:24:58.838Z,8.6
2023-12-27T10:30:06.200Z,8.5
2023-12-27T10:35:13.535Z,8.4
2023-12-27T10:40:20.853Z,8.5
2023-12-27T10:45:28.259Z,8.5
2023-12-27T10:50:35.766Z,8.4
2023-12-27T10:55:42.939Z,8.7
2023-12-27T11:00:50.344Z,9
2023-12-27T11:05:57.678Z,9.3
2023-12-27T11:11:04.995Z,9.3
2023-12-27T11:16:12.372Z,9.1
2023-12-27T11:21:20.241Z,9
2023-12-27T11:26:27.058Z,8.9
2023-12-27T11:31:34.440Z,9.2
2023-12-27T11:36:41.806Z,8.7
2023-12-27T11:41:49.110Z,8.3
2023-12-27T11:46:56.489Z,8
2023-12-27T11:52:03.815Z,8.1
2023-12-27T11:57:11.269Z,7.9
2023-12-27T12:02:18.582Z,8.1
2023-12-27T12:07:25.925Z,8.8
2023-12-27T12:12:33.338Z,9.1
2023-12-27T12:17:40.692Z,9.2
2023-12-27T12:22:47.959Z,9.6
2023-12-27T12:27:55.458Z,9.9
2023-12-27T12:33:02.775Z,10.1
2023-12-27T12:38:10.083Z,9.9
2023-12-27T12:43:17.414Z,9.3
2023-12-27T12:48:24.879Z,8.5
2023-12-27T12:53:32.128Z,8.3
2023-12-27T12:58:39.526Z,7.9
2023-12-27T13:03:46.876Z,7.9
2023-12-27T13:08:54.197Z,7.6
2023-12-27T13:14:01.564Z,7.8
2023-12-27T13:19:08.987Z,7.8
2023-12-27T13:24:16.289Z,7.7
2023-12-27T13:29:23.611Z,7.7
2023-12-27T13:34:31.151Z,7.7
2023-12-27T13:39:38.304Z,7.9
2023-12-27T13:44:45.702Z,7.6
2023-12-27T13:49:53.041Z,7.6
2023-12-27T13:55:00.460Z,7.1
2023-12-27T14:00:07.917Z,7
2023-12-27T14:05:15.301Z,7
2023-12-27T14:10:22.444Z,6.9
2023-12-27T14:15:29.884Z,6.6
2023-12-27T14:20:37.167Z,6.5
2023-12-27T14:25:44.553Z,6.1
2023-12-27T14:30:51.934Z,5.9
2023-12-27T14:35:59.251Z,5.5
2023-12-27T14:41:06.624Z,5.5
2023-12-27T14:46:13.971Z,5.1
2023-12-27T14:51:21.349Z,4.8
2023-12-27T14:56:28.673Z,5
2023-12-27T15:01:36.164Z,5
2023-12-27T15:06:43.439Z,4.9
2023-12-27T15:11:50.773Z,4.8
2023-12-27T15:16:58.075Z,4.9
2023-12-27T15:22:05.539Z,5
2023-12-27T15:27:12.849Z,4.7
2023-12-27T15:32:20.188Z,4.6
2023-12-27T15:37:27.534Z,4.8
2023-12-27T15:42:34.948Z,4.5
2023-12-27T15:47:42.236Z,4.6
2023-12-27T15:52:49.635Z,4.6
2023-12-27T15:57:57.146Z,4.7
2023-12-27T16:03:04.378Z,4.8
2023-12-27T16:08:11.672Z,4.3
2023-12-27T16:13:19.058Z,4.2
2023-12-27T16:23:33.731Z,3.9
2023-12-27T16:28:41.064Z,4.3
2023-12-27T16:33:48.587Z,4.3
2023-12-27T16:38:55.827Z,4.3
2023-12-27T16:44:03.147Z,4.7
2023-12-27T16:49:10.592Z,4.3
2023-12-27T16:54:17.906Z,4.3
2023-12-27T16:59:26.351Z,4
2023-12-27T17:04:32.690Z,3.9
2023-12-27T17:09:39.994Z,4
2023-12-27T17:14:47.325Z,3.9
2023-12-27T17:19:54.752Z,4.3
2023-12-27T17:25:02.006Z,4.1
2023-12-27T17:30:09.429Z,3.9
2023-12-27T17:35:16.757Z,4.1
2023-12-27T17:40:24.088Z,3.9
2023-12-27T17:45:31.466Z,3.9
2023-12-27T17:50:38.806Z,4.4
2023-12-27T17:55:46.144Z,3.9
2023-12-27T18:00:53.611Z,4.4
2023-12-27T18:06:00.899Z,4
2023-12-27T18:11:08.211Z,4.2
2023-12-27T18:16:15.600Z,4
2023-12-27T18:21:22.916Z,4.1
2023-12-27T18:26:36.016Z,4.1
2023-12-27T18:31:37.749Z,4.3
2023-12-27T18:36:45.050Z,4.2
2023-12-27T18:41:52.338Z,3.9
2023-12-27T18:46:59.739Z,4.3
2023-12-27T18:52:07.089Z,4.2
2023-12-27T18:57:14.471Z,4.4
2023-12-27T19:02:21.828Z,3.7
2023-12-27T19:07:29.161Z,3.9
2023-12-27T19:12:36.513Z,4
2023-12-27T19:17:43.964Z,4.2
2023-12-27T19:22:51.221Z,4.4
2023-12-27T19:27:58.582Z,4.5
2023-12-27T19:33:06.007Z,4.4
2023-12-27T19:38:13.276Z,4.2
2023-12-27T19:43:20.663Z,4.8
2023-12-27T19:48:28.203Z,4.2
2023-12-27T19:53:35.353Z,3.8
2023-12-27T19:58:42.709Z,4.1
2023-12-27T20:03:50.111Z,3.6
2023-12-27T20:08:57.428Z,4.3
2023-12-27T20:14:04.805Z,3.7
2023-12-27T20:19:12.222Z,4
2023-12-27T20:24:19.508Z,3.8
2023-12-27T20:29:26.851Z,4.1
2023-12-27T20:34:34.327Z,3.7
2023-12-27T20:39:41.646Z,4.8
2023-12-27T20:44:48.965Z,4.1
2023-12-27T20:49:56.387Z,4.1
2023-12-27T20:55:03.614Z,3.7
2023-12-27T21:00:11.033Z,3.5
2023-12-27T21:05:18.393Z,3.4
2023-12-27T21:10:25.744Z,3.3
2023-12-27T21:15:33.096Z,3.6
2023-12-27T21:20:40.411Z,3.8
2023-12-27T21:25:47.847Z,4
2023-12-27T21:30:55.182Z,3.9
2023-12-27T21:36:02.467Z,4.2
2023-12-27T21:41:09.841Z,4.3
2023-12-27T21:46:17.192Z,4.5
2023-12-27T21:51:24.562Z,4.6
2023-12-27T21:56:32.067Z,4.6
2023-12-27T22:01:39.293Z,4
2023-12-27T22:06:46.666Z,4.2
2023-12-27T22:11:54.016Z,4
2023-12-27T22:17:01.336Z,3.8
2023-12-27T22:22:08.712Z,3.9
2023-12-27T22:27:16.036Z,4.3
2023-12-27T22:32:23.428Z,4.2
2023-12-27T22:37:30.743Z,4.4
2023-12-27T22:42:38.128Z,4.8
2023-12-27T22:47:45.498Z,4.3
2023-12-27T22:52:52.824Z,4.2
2023-12-27T22:58:00.378Z,4.2
2023-12-27T23:03:07.541Z,4.1
2023-12-27T23:13:22.313Z,4.5
2023-12-27T23:18:29.794Z,4.6
2023-12-27T23:23:36.995Z,4.4
2023-12-27T23:28:44.367Z,4.4
2023-12-27T23:33:51.819Z,4.8
2023-12-27T23:38:59.094Z,4.6
2023-12-27T23:46:18.172Z,5
2023-12-27T23:51:25.542Z,4.7
2023-12-27T23:56:32.882Z,4.7
